Kamiah, ID

1:48 AM PDT on October 01, 2014 (GMT -0700)
Lowell | Change Station
CLOSE
Current Station
Airport
Location: Lowell,
Elevation: 1480 ft
Nearby Weather Stations

Elev 1480 ft 46.14 °N, 115.60 °W | Updated 56 minutes ago

Mostly Cloudy
Mostly Cloudy
48 °F
Feels Like 48 °F
N
0
Wind Variable Wind from North
Gusts 2 mph

Today
High -- | Low -- °F
--% Chance of Precip.
Yesterday
High -- | Low -- °F
Precip. -- in
6:42 AM 6:23 PM
Waxing Crescent, 45% visible
Pressure 30.08 in
Visibility -9999.0 miles
Clouds
Dew Point 47 °F
Humidity 96%
Rainfall 0.01 in
Snow Depth Not available.
UV Not available.
Pollen 6.50 out of 12
Air Quality Not available.
Flu Activity Not available.
METAR KP69 010752Z AUTO 00000KT 09/08 A3008 RMK AO1 SLP185 T00890083 401560089

More Conditions Fewer Conditions

Pressure 30.08 in
Visibility -9999.0 miles
Clouds
Dew Point 47 °F
Humidity 96%
Rainfall 0.01 in
Snow Depth Not available.
UV Not available.
Pollen 6.50 out of 12
Air Quality Not available.
Flu Activity Not available.
METAR KP69 010752Z AUTO 00000KT 09/08 A3008 RMK AO1 SLP185 T00890083 401560089

More Conditions Fewer Conditions

10-Day Weather Forecast

Almanac

Astronomy

Oct. 01, 2014 Rise Set
Actual Time 6:42 AM PDT 6:23 PM PDT
Civil Twilight 6:12 AM PDT 6:53 PM PDT
Nautical Twilight 5:37 AM PDT 7:28 PM PDT
Astronomical Twilight 5:02 AM PDT 8:03 PM PDT
Moon 2:01 PM PDT 11:46 PM PDT
Length of Visible Light 12h 40m
Length of Day
11h 41m
Tomorrow will be 3m 15s shorter.
Waxing Crescent, 45% of the Moon is Illuminated
Today
Waxing Crescent
Oct 1
First Quarter
Oct 8
Full
Oct 15
Last Quarter
Oct 23
New

Today's Extremes

State Highs State Lows

Community

WunderPhotos

Upload Photos

1,757,902 photos uploaded!

Nearby

Air Quality

  Air Quality AQ Index Pollutant
Yesterday Good
PM2.5
Wednesday Good
PM2.5
Thursday Good
PM2.5

Snow Depth

Station Depth Elevation
Cozy Cove 1 in 5380 ft
Emigrant Summit 1 in 7390 ft
Stickney Mill 0 in 7430 ft
Franklin Basin 2 in 8170 ft
White Elephant 1 in 7710 ft

Earthquake Activity

City Distance Mag. Time & Date
No recent earthquake activity has been reported nearby.
Minimum magnitude displayed is 2.5.

Coastal Water Temperatures

Place Temperature
No Stations Reporting

Nearby Weather Stations